sensor_id;sensor_type;location;lat;lon;timestamp;pressure;altitude;pressure_sealevel;temperature;humidity
43681;BME280;29281;50.356;30.894;2022-12-15T07:41:53;99817.42;;;0.06;100.00
43681;BME280;29281;50.356;30.894;2022-12-15T07:42:55;99819.09;;;0.09;100.00
43681;BME280;29281;50.356;30.894;2022-12-15T07:44:00;99820.50;;;0.19;100.00
43681;BME280;29281;50.356;30.894;2022-12-15T07:45:06;99812.16;;;0.08;100.00
43681;BME280;29281;50.356;30.894;2022-12-15T07:46:08;99813.56;;;0.18;100.00
43681;BME280;29281;50.356;30.894;2022-12-15T07:47:12;99823.11;;;0.19;100.00
43681;BME280;29281;50.356;30.894;2022-12-15T07:48:15;99826.13;;;0.33;100.00
43681;BME280;29281;50.356;30.894;2022-12-15T07:49:19;99816.49;;;0.35;100.00
43681;BME280;29281;50.356;30.894;2022-12-15T07:50:21;99817.20;;;0.14;100.00
43681;BME280;29281;50.356;30.894;2022-12-15T07:51:27;99813.98;;;0.32;100.00
43681;BME280;29281;50.356;30.894;2022-12-15T07:52:30;99817.89;;;0.19;100.00
43681;BME280;29281;50.356;30.894;2022-12-15T07:53:35;99820.89;;;0.07;100.00
43681;BME280;29281;50.356;30.894;2022-12-15T07:55:11;99814.23;;;0.24;100.00
43681;BME280;29281;50.356;30.894;2022-12-15T07:56:14;99819.22;;;0.04;100.00
43681;BME280;29281;50.356;30.894;2022-12-15T07:57:20;99827.83;;;0.08;100.00
43681;BME280;29281;50.356;30.894;2022-12-15T07:58:27;99823.50;;;0.07;100.00
43681;BME280;29281;50.356;30.894;2022-12-15T07:59:35;99822.52;;;0.11;100.00
43681;BME280;29281;50.356;30.894;2022-12-15T08:00:35;99827.20;;;0.27;100.00
43681;BME280;29281;50.356;30.894;2022-12-15T08:01:39;99835.36;;;0.17;100.00
43681;BME280;29281;50.356;30.894;2022-12-15T08:02:46;99831.70;;;0.22;100.00
43681;BME280;29281;50.356;30.894;2022-12-15T08:03:52;99827.43;;;0.20;100.00
43681;BME280;29281;50.356;30.894;2022-12-15T08:04:55;99837.06;;;0.18;100.00
43681;BME280;29281;50.356;30.894;2022-12-15T08:06:07;99823.69;;;0.28;100.00
43681;BME280;29281;50.356;30.894;2022-12-15T08:07:12;99829.14;;;0.21;100.00
43681;BME280;29281;50.356;30.894;2022-12-15T08:08:17;99835.43;;;0.15;100.00
43681;BME280;29281;50.356;30.894;2022-12-15T08:09:22;99828.33;;;0.19;100.00
43681;BME280;29281;50.356;30.894;2022-12-15T08:10:25;99822.12;;;0.23;100.00
43681;BME280;29281;50.356;30.894;2022-12-15T08:11:31;99828.50;;;0.14;100.00
43681;BME280;29281;50.356;30.894;2022-12-15T08:12:38;99837.48;;;0.32;100.00
43681;BME280;29281;50.356;30.894;2022-12-15T08:13:43;99828.61;;;0.38;100.00
43681;BME280;29281;50.356;30.894;2022-12-15T08:14:50;99829.59;;;0.33;100.00
43681;BME280;29281;50.356;30.894;2022-12-15T08:15:52;99833.78;;;0.39;100.00
43681;BME280;29281;50.356;30.894;2022-12-15T08:16:58;99836.89;;;0.50;100.00
43681;BME280;29281;50.356;30.894;2022-12-15T08:18:05;99833.73;;;0.41;100.00
43681;BME280;29281;50.356;30.894;2022-12-15T08:19:10;99833.16;;;0.31;100.00
43681;BME280;29281;50.356;30.894;2022-12-15T08:20:17;99841.58;;;0.41;100.00
43681;BME280;29281;50.356;30.894;2022-12-15T08:21:21;99837.84;;;0.48;100.00
43681;BME280;29281;50.356;30.894;2022-12-15T08:22:24;99846.58;;;0.47;100.00
43681;BME280;29281;50.356;30.894;2022-12-15T08:23:28;99834.99;;;0.55;100.00
43681;BME280;29281;50.356;30.894;2022-12-15T08:24:32;99831.06;;;0.68;100.00
43681;BME280;29281;50.356;30.894;2022-12-15T08:25:34;99833.23;;;0.56;100.00
43681;BME280;29281;50.356;30.894;2022-12-15T08:26:39;99836.21;;;0.45;100.00
43681;BME280;29281;50.356;30.894;2022-12-15T08:27:43;99830.86;;;0.48;100.00
43681;BME280;29281;50.356;30.894;2022-12-15T08:28:47;99832.34;;;0.57;100.00
43681;BME280;29281;50.356;30.894;2022-12-15T08:29:51;99828.47;;;0.42;100.00
43681;BME280;29281;50.356;30.894;2022-12-15T08:31:05;99828.30;;;0.47;100.00
43681;BME280;29281;50.356;30.894;2022-12-15T08:32:10;99827.61;;;0.42;100.00
43681;BME280;29281;50.356;30.894;2022-12-15T08:33:15;99835.27;;;0.46;100.00
43681;BME280;29281;50.356;30.894;2022-12-15T08:34:17;99827.92;;;0.59;100.00
43681;BME280;29281;50.356;30.894;2022-12-15T08:35:20;99824.49;;;0.57;100.00
43681;BME280;29281;50.356;30.894;2022-12-15T08:36:26;99828.25;;;0.48;100.00
43681;BME280;29281;50.356;30.894;2022-12-15T08:37:32;99833.02;;;0.62;100.00
43681;BME280;29281;50.356;30.894;2022-12-15T08:38:42;99826.69;;;0.69;100.00
43681;BME280;29281;50.356;30.894;2022-12-15T08:39:43;99824.51;;;0.82;100.00
43681;BME280;29281;50.356;30.894;2022-12-15T08:40:47;99824.94;;;0.69;100.00
43681;BME280;29281;50.356;30.894;2022-12-15T08:41:52;99823.03;;;0.75;100.00
43681;BME280;29281;50.356;30.894;2022-12-15T08:42:57;99824.46;;;0.83;100.00
43681;BME280;29281;50.356;30.894;2022-12-15T08:44:01;99825.52;;;0.78;100.00
43681;BME280;29281;50.356;30.894;2022-12-15T08:45:05;99831.83;;;0.72;100.00
43681;BME280;29281;50.356;30.894;2022-12-15T08:46:09;99827.78;;;0.88;100.00
43681;BME280;29281;50.356;30.894;2022-12-15T08:47:12;99826.75;;;0.92;100.00
43681;BME280;29281;50.356;30.894;2022-12-15T08:48:15;99836.05;;;0.76;100.00
43681;BME280;29281;50.356;30.894;2022-12-15T08:49:22;99841.53;;;0.93;100.00
43681;BME280;29281;50.356;30.894;2022-12-15T08:50:26;99834.24;;;1.03;100.00
43681;BME280;29281;50.356;30.894;2022-12-15T08:51:30;99825.97;;;0.90;100.00
43681;BME280;29281;50.356;30.894;2022-12-15T08:52:37;99832.78;;;0.94;100.00
43681;BME280;29281;50.356;30.894;2022-12-15T08:53:44;99833.48;;;0.99;100.00
43681;BME280;29281;50.356;30.894;2022-12-15T08:54:48;99835.47;;;1.18;100.00
43681;BME280;29281;50.356;30.894;2022-12-15T08:55:51;99831.07;;;0.93;100.00
43681;BME280;29281;50.356;30.894;2022-12-15T08:56:55;99824.03;;;0.95;100.00
43681;BME280;29281;50.356;30.894;2022-12-15T08:57:59;99822.88;;;1.04;100.00
43681;BME280;29281;50.356;30.894;2022-12-15T08:59:03;99821.97;;;1.05;100.00
43681;BME280;29281;50.356;30.894;2022-12-15T09:00:08;99829.21;;;0.97;100.00
43681;BME280;29281;50.356;30.894;2022-12-15T09:01:15;99828.96;;;1.04;100.00
43681;BME280;29281;50.356;30.894;2022-12-15T09:02:26;99827.77;;;1.13;100.00
43681;BME280;29281;50.356;30.894;2022-12-15T09:03:29;99835.09;;;1.03;100.00
43681;BME280;29281;50.356;30.894;2022-12-15T09:04:33;99819.88;;;1.15;100.00
43681;BME280;29281;50.356;30.894;2022-12-15T09:05:37;99824.45;;;1.08;100.00
43681;BME280;29281;50.356;30.894;2022-12-15T09:06:42;99834.44;;;0.97;100.00
43681;BME280;29281;50.356;30.894;2022-12-15T09:07:58;99832.05;;;1.16;100.00
43681;BME280;29281;50.356;30.894;2022-12-15T09:09:03;99832.66;;;1.22;100.00
43681;BME280;29281;50.356;30.894;2022-12-15T09:10:07;99831.60;;;1.28;100.00
43681;BME280;29281;50.356;30.894;2022-12-15T09:11:12;99834.27;;;1.26;100.00
43681;BME280;29281;50.356;30.894;2022-12-15T09:12:14;99823.48;;;1.35;100.00
43681;BME280;29281;50.356;30.894;2022-12-15T09:13:20;99831.89;;;1.20;100.00
43681;BME280;29281;50.356;30.894;2022-12-15T09:14:24;99823.91;;;1.23;100.00
43681;BME280;29281;50.356;30.894;2022-12-15T09:15:30;99830.59;;;1.32;100.00
43681;BME280;29281;50.356;30.894;2022-12-15T09:16:36;99817.56;;;1.30;100.00
43681;BME280;29281;50.356;30.894;2022-12-15T09:17:39;99815.05;;;1.27;100.00
43681;BME280;29281;50.356;30.894;2022-12-15T09:18:49;99815.65;;;1.11;100.00
43681;BME280;29281;50.356;30.894;2022-12-15T09:19:54;99817.95;;;1.20;100.00
43681;BME280;29281;50.356;30.894;2022-12-15T09:21:04;99814.54;;;1.18;100.00
43681;BME280;29281;50.356;30.894;2022-12-15T09:22:11;99820.67;;;1.17;100.00
43681;BME280;29281;50.356;30.894;2022-12-15T09:23:14;99816.06;;;1.23;100.00
43681;BME280;29281;50.356;30.894;2022-12-15T09:24:18;99817.72;;;1.26;100.00
43681;BME280;29281;50.356;30.894;2022-12-15T09:25:23;99822.73;;;1.32;100.00
43681;BME280;29281;50.356;30.894;2022-12-15T09:26:28;99821.83;;;1.33;100.00
43681;BME280;29281;50.356;30.894;2022-12-15T09:27:31;99816.09;;;1.47;100.00
43681;BME280;29281;50.356;30.894;2022-12-15T09:28:36;99816.45;;;1.37;100.00
43681;BME280;29281;50.356;30.894;2022-12-15T09:29:41;99811.42;;;1.31;100.00
43681;BME280;29281;50.356;30.894;2022-12-15T09:30:44;99810.67;;;1.28;100.00
43681;BME280;29281;50.356;30.894;2022-12-15T09:31:49;99801.86;;;1.30;100.00
43681;BME280;29281;50.356;30.894;2022-12-15T09:32:51;99811.58;;;1.27;100.00
43681;BME280;29281;50.356;30.894;2022-12-15T09:33:57;99817.11;;;1.43;100.00
43681;BME280;29281;50.356;30.894;2022-12-15T09:35:03;99812.28;;;1.32;100.00
43681;BME280;29281;50.356;30.894;2022-12-15T09:36:07;99816.81;;;1.27;100.00
43681;BME280;29281;50.356;30.894;2022-12-15T09:37:13;99818.36;;;1.32;100.00
43681;BME280;29281;50.356;30.894;2022-12-15T09:38:16;99816.61;;;1.33;100.00
43681;BME280;29281;50.356;30.894;2022-12-15T09:39:20;99814.04;;;1.31;100.00
43681;BME280;29281;50.356;30.894;2022-12-15T09:40:24;99819.42;;;1.27;100.00
43681;BME280;29281;50.356;30.894;2022-12-15T09:41:29;99806.70;;;1.41;100.00
43681;BME280;29281;50.356;30.894;2022-12-15T09:42:34;99810.06;;;1.45;100.00
43681;BME280;29281;50.356;30.894;2022-12-15T09:44:49;99814.83;;;1.57;100.00
43681;BME280;29281;50.356;30.894;2022-12-15T09:46:05;99800.63;;;1.86;100.00
43681;BME280;29281;50.356;30.894;2022-12-15T09:48:27;99816.13;;;1.68;100.00
43681;BME280;29281;50.356;30.894;2022-12-15T09:50:50;99805.60;;;1.70;100.00
43681;BME280;29281;50.356;30.894;2022-12-15T09:52:13;99813.59;;;1.67;100.00
43681;BME280;29281;50.356;30.894;2022-12-15T09:53:19;99803.13;;;1.67;100.00
43681;BME280;29281;50.356;30.894;2022-12-15T09:54:31;99803.56;;;1.55;100.00
43681;BME280;29281;50.356;30.894;2022-12-15T09:55:35;99801.58;;;1.61;100.00
43681;BME280;29281;50.356;30.894;2022-12-15T09:56:48;99801.43;;;1.88;100.00
43681;BME280;29281;50.356;30.894;2022-12-15T09:58:13;99795.77;;;1.76;100.00
43681;BME280;29281;50.356;30.894;2022-12-15T09:59:37;99799.07;;;1.82;100.00
43681;BME280;29281;50.356;30.894;2022-12-15T10:00:56;99790.53;;;1.76;100.00
43681;BME280;29281;50.356;30.894;2022-12-15T10:05:09;99797.16;;;1.85;100.00
43681;BME280;29281;50.356;30.894;2022-12-15T10:07:52;99798.87;;;1.86;100.00
43681;BME280;29281;50.356;30.894;2022-12-15T10:08:59;99799.44;;;1.94;100.00
43681;BME280;29281;50.356;30.894;2022-12-15T10:10:12;99793.23;;;1.97;100.00
43681;BME280;29281;50.356;30.894;2022-12-15T10:12:52;99802.93;;;1.71;100.00
43681;BME280;29281;50.356;30.894;2022-12-15T10:14:31;99809.70;;;1.77;100.00
43681;BME280;29281;50.356;30.894;2022-12-15T10:15:57;99816.92;;;1.70;100.00
43681;BME280;29281;50.356;30.894;2022-12-15T10:17:16;99809.13;;;1.69;100.00
43681;BME280;29281;50.356;30.894;2022-12-15T10:18:21;99808.38;;;1.89;100.00
43681;BME280;29281;50.356;30.894;2022-12-15T10:19:44;99809.48;;;1.83;100.00
43681;BME280;29281;50.356;30.894;2022-12-15T10:20:53;99811.05;;;1.87;100.00
43681;BME280;29281;50.356;30.894;2022-12-15T10:21:57;99812.76;;;1.88;100.00
43681;BME280;29281;50.356;30.894;2022-12-15T10:23:11;99796.28;;;2.08;100.00
43681;BME280;29281;50.356;30.894;2022-12-15T10:24:20;99803.39;;;2.04;100.00
43681;BME280;29281;50.356;30.894;2022-12-15T10:30:11;99802.22;;;2.33;100.00
43681;BME280;29281;50.356;30.894;2022-12-15T10:33:41;99802.63;;;2.44;100.00
43681;BME280;29281;50.356;30.894;2022-12-15T10:34:46;99798.63;;;2.36;100.00
43681;BME280;29281;50.356;30.894;2022-12-15T10:35:53;99800.56;;;2.53;100.00
43681;BME280;29281;50.356;30.894;2022-12-15T10:36:58;99794.65;;;2.47;100.00
43681;BME280;29281;50.356;30.894;2022-12-15T10:38:14;99808.61;;;2.48;100.00
43681;BME280;29281;50.356;30.894;2022-12-15T10:39:16;99798.86;;;2.52;100.00
43681;BME280;29281;50.356;30.894;2022-12-15T10:40:41;99796.00;;;2.58;100.00
43681;BME280;29281;50.356;30.894;2022-12-15T10:41:30;99802.73;;;2.63;100.00
43681;BME280;29281;50.356;30.894;2022-12-15T10:42:44;99795.04;;;2.38;100.00
43681;BME280;29281;50.356;30.894;2022-12-15T10:43:44;99794.13;;;2.39;100.00
43681;BME280;29281;50.356;30.894;2022-12-15T10:44:53;99798.63;;;2.36;100.00
43681;BME280;29281;50.356;30.894;2022-12-15T10:46:19;99797.43;;;2.23;100.00
43681;BME280;29281;50.356;30.894;2022-12-15T10:47:30;99789.24;;;2.30;100.00
43681;BME280;29281;50.356;30.894;2022-12-15T10:48:35;99797.84;;;2.34;100.00
43681;BME280;29281;50.356;30.894;2022-12-15T10:49:39;99795.22;;;2.34;100.00
43681;BME280;29281;50.356;30.894;2022-12-15T10:50:46;99788.55;;;2.47;100.00
43681;BME280;29281;50.356;30.894;2022-12-15T10:51:56;99792.70;;;2.53;100.00
43681;BME280;29281;50.356;30.894;2022-12-15T10:53:07;99788.55;;;2.47;100.00
43681;BME280;29281;50.356;30.894;2022-12-15T10:54:14;99792.24;;;2.63;100.00
43681;BME280;29281;50.356;30.894;2022-12-15T10:55:38;99787.73;;;2.67;100.00
43681;BME280;29281;50.356;30.894;2022-12-15T10:56:56;99788.12;;;2.78;100.00
43681;BME280;29281;50.356;30.894;2022-12-15T10:58:02;99789.90;;;2.57;100.00
43681;BME280;29281;50.356;30.894;2022-12-15T11:00:28;99798.24;;;2.45;100.00
43681;BME280;29281;50.356;30.894;2022-12-15T11:01:33;99787.64;;;2.48;100.00
43681;BME280;29281;50.356;30.894;2022-12-15T11:02:37;99794.25;;;2.36;100.00
43681;BME280;29281;50.356;30.894;2022-12-15T11:03:44;99788.21;;;2.34;100.00
43681;BME280;29281;50.356;30.894;2022-12-15T11:04:57;99783.31;;;2.47;100.00
43681;BME280;29281;50.356;30.894;2022-12-15T11:06:00;99806.90;;;2.47;100.00
43681;BME280;29281;50.356;30.894;2022-12-15T11:07:11;99785.59;;;2.34;100.00
43681;BME280;29281;50.356;30.894;2022-12-15T11:08:15;99787.80;;;2.23;100.00
43681;BME280;29281;50.356;30.894;2022-12-15T11:10:31;99785.35;;;2.40;100.00
43681;BME280;29281;50.356;30.894;2022-12-15T11:11:44;99785.13;;;2.25;100.00
43681;BME280;29281;50.356;30.894;2022-12-15T16:51:11;99996.75;;;1.93;100.00
43681;BME280;29281;50.356;30.894;2022-12-15T16:52:18;99996.28;;;1.82;100.00
43681;BME280;29281;50.356;30.894;2022-12-15T16:53:28;99992.47;;;1.91;100.00
43681;BME280;29281;50.356;30.894;2022-12-15T16:54:37;100000.84;;;2.00;100.00
43681;BME280;29281;50.356;30.894;2022-12-15T16:55:42;100001.48;;;2.07;100.00
43681;BME280;29281;50.356;30.894;2022-12-15T16:56:46;99998.12;;;2.03;100.00
43681;BME280;29281;50.356;30.894;2022-12-15T16:57:53;99990.20;;;2.05;100.00
43681;BME280;29281;50.356;30.894;2022-12-15T16:58:58;100001.64;;;2.02;100.00
43681;BME280;29281;50.356;30.894;2022-12-15T17:00:12;100007.69;;;2.04;100.00
43681;BME280;29281;50.356;30.894;2022-12-15T17:01:11;100008.70;;;2.00;100.00
43681;BME280;29281;50.356;30.894;2022-12-15T17:02:27;100006.03;;;2.02;100.00
43681;BME280;29281;50.356;30.894;2022-12-15T17:03:34;100011.31;;;2.00;100.00
43681;BME280;29281;50.356;30.894;2022-12-15T17:04:38;100005.12;;;2.03;100.00
43681;BME280;29281;50.356;30.894;2022-12-15T17:05:44;100011.11;;;2.06;100.00
43681;BME280;29281;50.356;30.894;2022-12-15T17:06:50;100016.61;;;1.99;100.00
43681;BME280;29281;50.356;30.894;2022-12-15T17:07:56;100008.59;;;2.03;100.00
43681;BME280;29281;50.356;30.894;2022-12-15T17:09:01;100008.75;;;1.99;100.00
43681;BME280;29281;50.356;30.894;2022-12-15T17:10:06;100011.37;;;1.99;100.00
43681;BME280;29281;50.356;30.894;2022-12-15T17:11:21;100011.37;;;1.99;100.00
43681;BME280;29281;50.356;30.894;2022-12-15T17:12:25;100016.55;;;2.00;100.00
43681;BME280;29281;50.356;30.894;2022-12-15T17:13:33;100012.02;;;2.05;100.00
43681;BME280;29281;50.356;30.894;2022-12-15T17:14:39;100010.09;;;2.10;100.00
43681;BME280;29281;50.356;30.894;2022-12-15T17:15:42;100009.61;;;1.99;100.00
43681;BME280;29281;50.356;30.894;2022-12-15T17:16:46;100010.30;;;2.04;100.00
43681;BME280;29281;50.356;30.894;2022-12-15T17:17:51;100017.65;;;1.95;100.00
43681;BME280;29281;50.356;30.894;2022-12-15T17:20:14;100013.97;;;2.24;100.00
43681;BME280;29281;50.356;30.894;2022-12-15T17:21:27;100018.32;;;2.00;100.00
43681;BME280;29281;50.356;30.894;2022-12-15T17:22:32;100018.91;;;2.08;100.00
43681;BME280;29281;50.356;30.894;2022-12-15T17:23:35;100023.19;;;2.10;100.00
43681;BME280;29281;50.356;30.894;2022-12-15T17:24:41;100027.58;;;2.10;100.00
43681;BME280;29281;50.356;30.894;2022-12-15T17:25:50;100020.89;;;2.01;100.00
43681;BME280;29281;50.356;30.894;2022-12-15T17:26:57;100024.95;;;2.10;100.00
43681;BME280;29281;50.356;30.894;2022-12-15T17:28:00;100027.39;;;2.15;100.00
43681;BME280;29281;50.356;30.894;2022-12-15T17:29:22;100027.63;;;2.08;100.00
43681;BME280;29281;50.356;30.894;2022-12-15T17:30:26;100024.31;;;2.03;100.00
43681;BME280;29281;50.356;30.894;2022-12-15T17:31:34;100030.90;;;1.90;100.00
43681;BME280;29281;50.356;30.894;2022-12-15T17:32:38;100019.52;;;1.91;100.00
43681;BME280;29281;50.356;30.894;2022-12-15T17:33:42;100021.84;;;1.99;100.00
43681;BME280;29281;50.356;30.894;2022-12-15T17:34:46;100026.93;;;2.03;100.00
43681;BME280;29281;50.356;30.894;2022-12-15T17:35:52;100023.19;;;2.10;100.00
43681;BME280;29281;50.356;30.894;2022-12-15T17:37:03;100027.34;;;2.16;100.00
43681;BME280;29281;50.356;30.894;2022-12-15T17:38:13;100019.53;;;2.15;100.00
43681;BME280;29281;50.356;30.894;2022-12-15T17:39:18;100014.84;;;1.99;100.00
43681;BME280;29281;50.356;30.894;2022-12-15T17:40:23;100019.83;;;2.07;100.00
43681;BME280;29281;50.356;30.894;2022-12-15T17:41:27;100022.34;;;2.10;100.00
43681;BME280;29281;50.356;30.894;2022-12-15T17:42:31;100024.61;;;2.19;100.00
43681;BME280;29281;50.356;30.894;2022-12-15T17:43:35;100028.94;;;2.20;100.00
43681;BME280;29281;50.356;30.894;2022-12-15T17:44:38;100032.52;;;2.18;100.00
43681;BME280;29281;50.356;30.894;2022-12-15T17:45:43;100028.89;;;2.22;100.00
43681;BME280;29281;50.356;30.894;2022-12-15T17:46:48;100023.80;;;2.17;100.00
43681;BME280;29281;50.356;30.894;2022-12-15T17:47:52;100031.51;;;2.22;100.00
43681;BME280;29281;50.356;30.894;2022-12-15T17:48:56;100026.27;;;2.22;100.00
43681;BME280;29281;50.356;30.894;2022-12-15T17:50:01;100030.55;;;2.24;100.00
43681;BME280;29281;50.356;30.894;2022-12-15T17:51:16;100033.27;;;2.21;100.00
43681;BME280;29281;50.356;30.894;2022-12-15T17:52:25;100032.42;;;2.21;100.00
43681;BME280;29281;50.356;30.894;2022-12-15T17:53:31;100028.38;;;2.12;100.00
43681;BME280;29281;50.356;30.894;2022-12-15T17:54:35;100031.05;;;2.10;100.00
43681;BME280;29281;50.356;30.894;2022-12-15T17:55:39;100024.77;;;2.15;100.00
43681;BME280;29281;50.356;30.894;2022-12-15T17:56:45;100034.23;;;2.19;100.00
43681;BME280;29281;50.356;30.894;2022-12-15T17:57:50;100028.09;;;2.20;100.00
43681;BME280;29281;50.356;30.894;2022-12-15T17:58:53;100032.63;;;2.15;100.00
43681;BME280;29281;50.356;30.894;2022-12-15T17:59:58;100024.50;;;2.22;100.00
43681;BME280;29281;50.356;30.894;2022-12-15T18:01:02;100032.36;;;2.22;100.00
43681;BME280;29281;50.356;30.894;2022-12-15T18:02:10;100036.59;;;2.26;100.00
43681;BME280;29281;50.356;30.894;2022-12-15T18:03:13;100035.55;;;2.30;100.00
43681;BME280;29281;50.356;30.894;2022-12-15T18:04:17;100037.66;;;2.21;100.00
43681;BME280;29281;50.356;30.894;2022-12-15T18:05:24;100040.13;;;2.25;100.00
43681;BME280;29281;50.356;30.894;2022-12-15T18:06:28;100041.23;;;2.18;100.00
43681;BME280;29281;50.356;30.894;2022-12-15T18:07:33;100041.13;;;2.21;100.00
43681;BME280;29281;50.356;30.894;2022-12-15T18:08:37;100031.16;;;2.07;100.00
43681;BME280;29281;50.356;30.894;2022-12-15T18:09:41;100035.20;;;2.16;100.00
43681;BME280;29281;50.356;30.894;2022-12-15T18:10:48;100041.08;;;2.23;100.00
43681;BME280;29281;50.356;30.894;2022-12-15T18:11:55;100027.02;;;2.25;100.00
43681;BME280;29281;50.356;30.894;2022-12-15T18:12:59;100027.02;;;2.25;100.00
43681;BME280;29281;50.356;30.894;2022-12-15T18:14:10;100042.69;;;2.27;100.00
43681;BME280;29281;50.356;30.894;2022-12-15T18:15:16;100038.75;;;2.38;100.00
43681;BME280;29281;50.356;30.894;2022-12-15T18:16:17;100037.39;;;2.28;100.00
43681;BME280;29281;50.356;30.894;2022-12-15T18:17:20;100039.92;;;2.30;100.00
43681;BME280;29281;50.356;30.894;2022-12-15T18:18:24;100032.92;;;2.30;100.00
43681;BME280;29281;50.356;30.894;2022-12-15T18:19:28;100037.45;;;2.27;100.00
43681;BME280;29281;50.356;30.894;2022-12-15T18:20:34;100041.53;;;2.34;100.00
43681;BME280;29281;50.356;30.894;2022-12-15T18:21:39;100044.05;;;2.37;100.00
43681;BME280;29281;50.356;30.894;2022-12-15T18:22:45;100035.48;;;2.32;100.00
43681;BME280;29281;50.356;30.894;2022-12-15T18:23:50;100044.75;;;2.42;100.00
43681;BME280;29281;50.356;30.894;2022-12-15T18:24:53;100045.60;;;2.42;100.00
43681;BME280;29281;50.356;30.894;2022-12-15T18:25:58;100045.60;;;2.42;100.00
43681;BME280;29281;50.356;30.894;2022-12-15T18:27:20;100049.98;;;2.42;100.00
43681;BME280;29281;50.356;30.894;2022-12-15T18:28:24;100051.80;;;2.40;100.00
43681;BME280;29281;50.356;30.894;2022-12-15T18:29:30;100048.38;;;2.38;100.00
43681;BME280;29281;50.356;30.894;2022-12-15T18:30:34;100051.80;;;2.40;100.00
43681;BME280;29281;50.356;30.894;2022-12-15T18:31:41;100044.05;;;2.37;100.00
43681;BME280;29281;50.356;30.894;2022-12-15T18:32:45;100045.81;;;2.36;100.00
43681;BME280;29281;50.356;30.894;2022-12-15T18:33:50;100051.00;;;2.38;100.00
43681;BME280;29281;50.356;30.894;2022-12-15T18:34:57;100045.70;;;2.39;100.00
43681;BME280;29281;50.356;30.894;2022-12-15T18:36:05;100049.98;;;2.42;100.00
43681;BME280;29281;50.356;30.894;2022-12-15T18:38:27;100048.99;;;2.44;100.00
43681;BME280;29281;50.356;30.894;2022-12-15T18:39:32;100049.08;;;2.43;100.00
43681;BME280;29281;50.356;30.894;2022-12-15T18:40:36;100045.35;;;2.48;100.00
43681;BME280;29281;50.356;30.894;2022-12-15T18:41:41;100055.78;;;2.50;100.00
43681;BME280;29281;50.356;30.894;2022-12-15T18:42:45;100049.63;;;2.51;100.00
43681;BME280;29281;50.356;30.894;2022-12-15T18:43:49;100060.01;;;2.54;100.00
43681;BME280;29281;50.356;30.894;2022-12-15T18:44:53;100057.39;;;2.54;100.00
43681;BME280;29281;50.356;30.894;2022-12-15T18:45:59;100063.03;;;2.43;100.00
43681;BME280;29281;50.356;30.894;2022-12-15T18:47:07;100064.31;;;2.32;100.00
43681;BME280;29281;50.356;30.894;2022-12-15T18:48:15;100071.11;;;2.37;100.00
43681;BME280;29281;50.356;30.894;2022-12-15T18:49:19;100061.33;;;2.42;100.00
43681;BME280;29281;50.356;30.894;2022-12-15T18:50:24;100065.52;;;2.46;100.00
43681;BME280;29281;50.356;30.894;2022-12-15T18:51:29;100067.98;;;2.51;100.00
43681;BME280;29281;50.356;30.894;2022-12-15T18:52:32;100070.66;;;2.50;100.00
43681;BME280;29281;50.356;30.894;2022-12-15T18:53:36;100067.87;;;2.54;100.00
43681;BME280;29281;50.356;30.894;2022-12-15T18:54:45;100068.09;;;2.48;100.00
43681;BME280;29281;50.356;30.894;2022-12-15T18:55:49;100071.81;;;2.42;100.00
43681;BME280;29281;50.356;30.894;2022-12-15T18:56:52;100076.05;;;2.45;100.00
43681;BME280;29281;50.356;30.894;2022-12-15T18:57:57;100072.47;;;2.47;100.00
43681;BME280;29281;50.356;30.894;2022-12-15T18:59:04;100077.61;;;2.51;100.00
43681;BME280;29281;50.356;30.894;2022-12-15T19:00:17;100074.37;;;2.44;100.00
43681;BME280;29281;50.356;30.894;2022-12-15T19:01:21;100074.37;;;2.44;100.00
43681;BME280;29281;50.356;30.894;2022-12-15T19:02:25;100075.84;;;2.51;100.00
43681;BME280;29281;50.356;30.894;2022-12-15T19:03:29;100082.30;;;2.42;100.00
43681;BME280;29281;50.356;30.894;2022-12-15T19:04:34;100082.95;;;2.47;100.00
43681;BME280;29281;50.356;30.894;2022-12-15T19:05:38;100084.56;;;2.52;100.00
43681;BME280;29281;50.356;30.894;2022-12-15T19:06:42;100086.27;;;2.53;100.00
43681;BME280;29281;50.356;30.894;2022-12-15T19:07:45;100086.22;;;2.54;100.00
43681;BME280;29281;50.356;30.894;2022-12-15T19:08:50;100087.02;;;2.56;100.00
43681;BME280;29281;50.356;30.894;2022-12-15T19:09:53;100093.73;;;2.63;100.00
43681;BME280;29281;50.356;30.894;2022-12-15T19:11:12;100090.31;;;2.61;100.00
43681;BME280;29281;50.356;30.894;2022-12-15T19:12:19;100091.00;;;2.66;100.00
43681;BME280;29281;50.356;30.894;2022-12-15T19:13:30;100087.31;;;2.72;100.00
43681;BME280;29281;50.356;30.894;2022-12-15T19:14:28;100098.66;;;2.72;100.00
43681;BME280;29281;50.356;30.894;2022-12-15T19:15:46;100085.16;;;2.60;100.00
43681;BME280;29281;50.356;30.894;2022-12-15T19:16:50;100097.45;;;2.58;100.00
43681;BME280;29281;50.356;30.894;2022-12-15T19:18:14;100102.41;;;2.65;100.00
43681;BME280;29281;50.356;30.894;2022-12-15T19:19:37;100098.92;;;2.65;100.00
43681;BME280;29281;50.356;30.894;2022-12-15T19:21:21;100099.54;;;2.48;100.00
43681;BME280;29281;50.356;30.894;2022-12-15T19:22:27;100091.57;;;2.52;100.00
43681;BME280;29281;50.356;30.894;2022-12-15T19:23:32;100091.57;;;2.51;100.00
43681;BME280;29281;50.356;30.894;2022-12-15T19:24:35;100104.89;;;2.45;100.00
43681;BME280;29281;50.356;30.894;2022-12-15T19:25:57;100102.27;;;2.45;100.00
43681;BME280;29281;50.356;30.894;2022-12-15T19:27:00;100108.45;;;2.44;100.00
43681;BME280;29281;50.356;30.894;2022-12-15T19:28:08;100096.41;;;2.38;100.00
43681;BME280;29281;50.356;30.894;2022-12-15T19:29:16;100089.16;;;2.45;100.00